createdAt,value
2018-06-30T00:00:02.354Z,12.3
2018-06-30T00:15:02.659Z,12.2
2018-06-30T00:30:03.246Z,12.2
2018-06-30T00:45:02.582Z,12.2
2018-06-30T01:00:02.860Z,12.2
2018-06-30T01:15:03.231Z,12.1
2018-06-30T01:30:02.838Z,12.1
2018-06-30T01:45:03.376Z,12.1
2018-06-30T02:00:02.791Z,12.1
2018-06-30T02:15:03.094Z,12.1
2018-06-30T02:30:02.593Z,12
2018-06-30T02:45:03.058Z,12
2018-06-30T03:00:02.588Z,12
2018-06-30T03:15:03.766Z,12
2018-06-30T03:30:03.207Z,11.9
2018-06-30T03:45:02.547Z,11.9
2018-06-30T04:00:02.865Z,11.9
2018-06-30T04:15:03.204Z,11.9
2018-06-30T04:30:02.764Z,11.9
2018-06-30T04:45:03.081Z,11.9
2018-06-30T05:00:02.494Z,11.9
2018-06-30T05:15:02.781Z,11.9
2018-06-30T05:30:03.333Z,11.9
2018-06-30T05:45:04.578Z,11.9
2018-06-30T06:00:02.867Z,11.9
2018-06-30T06:15:03.205Z,11.9
2018-06-30T06:30:02.876Z,11.9
2018-06-30T06:45:03.236Z,11.9
2018-06-30T07:00:02.628Z,12
2018-06-30T07:15:02.960Z,12.1
2018-06-30T07:30:02.377Z,12.1
2018-06-30T07:45:02.687Z,12.2
2018-06-30T08:00:02.998Z,12.2
2018-06-30T08:15:02.376Z,12.3
2018-06-30T08:30:02.787Z,12.4
2018-06-30T08:45:03.097Z,12.4
2018-06-30T09:00:02.405Z,12.5
2018-06-30T09:15:02.752Z,12.6
2018-06-30T09:30:03.196Z,12.7
2018-06-30T09:45:02.653Z,12.8
2018-06-30T10:00:03.063Z,12.9
2018-06-30T10:15:02.385Z,13.1
2018-06-30T10:30:02.784Z,13.1
2018-06-30T10:45:03.102Z,13.3
2018-06-30T11:00:02.386Z,13.4
2018-06-30T11:15:02.713Z,13.5
2018-06-30T11:30:03.211Z,13.6
2018-06-30T11:45:02.605Z,13.7
2018-06-30T12:00:02.888Z,13.8
2018-06-30T12:15:03.240Z,13.9
2018-06-30T12:30:02.660Z,14
2018-06-30T12:45:03.092Z,14.1
2018-06-30T13:00:02.517Z,14.2
2018-06-30T13:15:02.797Z,14.2
2018-06-30T13:30:03.398Z,14.4
2018-06-30T13:45:02.844Z,14.5
2018-06-30T14:00:03.211Z,14.6
2018-06-30T14:15:02.535Z,14.7
2018-06-30T14:30:03.206Z,14.8
2018-06-30T14:45:02.609Z,14.9
2018-06-30T15:00:02.899Z,14.9
2018-06-30T15:15:03.236Z,15
2018-06-30T15:30:02.640Z,15.1
2018-06-30T15:45:02.969Z,15.1
2018-06-30T16:00:02.304Z,15.1
2018-06-30T16:15:02.647Z,15.1
2018-06-30T16:30:03.014Z,15.1
2018-06-30T16:45:02.474Z,15.1
2018-06-30T17:00:02.809Z,15.1
2018-06-30T17:15:03.183Z,15.1
2018-06-30T17:30:02.707Z,15.1
2018-06-30T17:45:03.060Z,15.1
2018-06-30T18:00:02.362Z,15.1
2018-06-30T18:15:02.865Z,15.1
2018-06-30T18:30:03.314Z,15
2018-06-30T18:45:02.813Z,15
2018-06-30T19:00:03.273Z,14.9
2018-06-30T19:15:02.562Z,14.9
2018-06-30T19:30:02.980Z,14.9
2018-06-30T19:45:02.284Z,14.8
2018-06-30T20:00:02.575Z,14.8
2018-06-30T20:15:03.000Z,14.8
2018-06-30T20:30:02.581Z,14.7
2018-06-30T20:45:03.029Z,14.6
2018-06-30T21:00:02.449Z,14.6
2018-06-30T21:15:02.761Z,14.6
2018-06-30T21:30:03.159Z,14.5
2018-06-30T21:45:02.497Z,14.5
2018-06-30T22:00:02.791Z,14.5
2018-06-30T22:15:03.825Z,14.4
2018-06-30T22:30:03.330Z,14.4
2018-06-30T22:45:02.779Z,14.4
2018-06-30T23:00:04.126Z,14.3
2018-06-30T23:15:03.409Z,14.2
2018-06-30T23:30:02.894Z,14.2
2018-06-30T23:45:03.575Z,14.1
